createdAt,value
2022-08-26T00:01:45.245Z,25.20
2022-08-26T00:04:12.797Z,25.29
2022-08-26T00:06:42.731Z,25.29
2022-08-26T00:09:16.177Z,25.44
2022-08-26T00:11:45.466Z,25.30
2022-08-26T00:14:14.085Z,25.22
2022-08-26T00:16:47.479Z,25.32
2022-08-26T00:19:17.255Z,25.16
2022-08-26T00:21:44.452Z,25.18
2022-08-26T00:24:11.401Z,24.98
2022-08-26T00:26:39.468Z,24.99
2022-08-26T00:29:08.240Z,24.90
2022-08-26T00:31:36.852Z,24.76
2022-08-26T00:34:04.503Z,24.91
2022-08-26T00:36:32.365Z,24.92
2022-08-26T00:38:59.566Z,24.79
2022-08-26T00:41:28.933Z,24.62
2022-08-26T00:43:55.840Z,24.96
2022-08-26T00:46:29.290Z,25.09
2022-08-26T00:49:12.333Z,24.99
2022-08-26T00:51:52.587Z,24.89
2022-08-26T00:54:22.996Z,24.81
2022-08-26T00:56:59.964Z,24.63
2022-08-26T00:59:27.652Z,24.53
2022-08-26T01:01:54.513Z,24.48
2022-08-26T01:04:23.478Z,24.37
2022-08-26T01:06:54.657Z,24.16
2022-08-26T01:09:23.373Z,23.80
2022-08-26T01:11:53.199Z,23.90
2022-08-26T01:14:22.384Z,23.99
2022-08-26T01:16:50.182Z,24.02
2022-08-26T01:19:28.508Z,24.34
2022-08-26T01:21:57.951Z,24.39
2022-08-26T01:24:27.798Z,24.18
2022-08-26T01:27:01.864Z,24.10
2022-08-26T01:29:30.114Z,24.09
2022-08-26T01:31:57.866Z,23.96
2022-08-26T01:34:36.592Z,23.99
2022-08-26T01:37:15.626Z,24.08
2022-08-26T01:39:44.975Z,24.24
2022-08-26T01:42:14.975Z,24.10
2022-08-26T01:44:54.246Z,24.02
2022-08-26T01:47:24.452Z,24.06
2022-08-26T01:49:55.040Z,24.28
2022-08-26T01:52:27.645Z,24.14
2022-08-26T01:54:57.283Z,24.26
2022-08-26T01:57:25.015Z,24.12
2022-08-26T01:59:55.552Z,24.02
2022-08-26T02:02:23.904Z,23.97
2022-08-26T02:04:57.379Z,24.00
2022-08-26T02:07:26.662Z,23.90
2022-08-26T02:09:54.487Z,23.82
2022-08-26T02:12:21.831Z,23.97
2022-08-26T02:14:53.843Z,23.96
2022-08-26T02:17:24.802Z,23.85
2022-08-26T02:19:52.219Z,23.90
2022-08-26T02:22:22.532Z,24.01
2022-08-26T02:24:57.278Z,23.87
2022-08-26T02:27:32.169Z,23.76
2022-08-26T02:30:07.160Z,23.57
2022-08-26T02:32:34.113Z,23.73
2022-08-26T02:35:02.066Z,23.71
2022-08-26T02:37:31.458Z,23.62
2022-08-26T02:39:58.645Z,23.75
2022-08-26T02:42:25.415Z,23.91
2022-08-26T02:44:52.397Z,23.91
2022-08-26T02:47:19.217Z,24.02
2022-08-26T02:49:47.231Z,24.01
2022-08-26T02:52:14.566Z,23.84
2022-08-26T02:54:41.362Z,23.94
2022-08-26T02:57:09.287Z,23.80
2022-08-26T02:59:36.308Z,23.94
2022-08-26T03:02:03.543Z,24.03
2022-08-26T03:04:33.301Z,24.05
2022-08-26T03:07:00.304Z,24.02
2022-08-26T03:09:27.454Z,24.09
2022-08-26T03:11:55.666Z,24.17
2022-08-26T03:14:24.098Z,24.16
2022-08-26T03:16:54.115Z,24.14
2022-08-26T03:19:23.379Z,24.01
2022-08-26T03:21:50.952Z,24.01
2022-08-26T03:24:19.581Z,23.99
2022-08-26T03:26:52.131Z,23.82
2022-08-26T03:29:39.056Z,23.91
2022-08-26T03:32:06.367Z,23.98
2022-08-26T03:34:33.281Z,24.02
2022-08-26T03:37:00.322Z,23.98
2022-08-26T03:39:27.440Z,23.97
2022-08-26T03:41:59.022Z,23.93
2022-08-26T03:44:26.857Z,23.99
2022-08-26T03:46:55.000Z,24.00
2022-08-26T03:49:22.721Z,24.06
2022-08-26T03:51:50.155Z,24.02
2022-08-26T03:54:17.724Z,24.09
2022-08-26T03:56:44.458Z,23.99
2022-08-26T03:59:13.473Z,24.06
2022-08-26T04:01:40.278Z,24.08
2022-08-26T04:04:07.122Z,23.90
2022-08-26T04:06:37.260Z,23.94
2022-08-26T04:09:07.270Z,23.94
2022-08-26T04:11:37.744Z,23.93
2022-08-26T04:14:08.901Z,24.05
2022-08-26T04:16:35.900Z,23.83
2022-08-26T04:19:03.130Z,23.90
2022-08-26T04:21:30.001Z,23.87
2022-08-26T04:23:58.297Z,23.66
2022-08-26T04:26:25.676Z,23.83
2022-08-26T04:28:55.084Z,23.58
2022-08-26T04:31:22.657Z,23.62
2022-08-26T04:33:50.986Z,23.58
2022-08-26T04:36:20.261Z,23.77
2022-08-26T04:38:47.661Z,23.65
2022-08-26T04:41:14.895Z,23.88
2022-08-26T04:43:43.210Z,24.23
2022-08-26T04:46:12.915Z,24.33
2022-08-26T04:48:41.361Z,24.57
2022-08-26T04:51:09.859Z,24.92
2022-08-26T04:53:37.482Z,25.21
2022-08-26T04:56:05.368Z,25.51
2022-08-26T04:58:32.841Z,25.84
2022-08-26T05:00:59.862Z,26.14
2022-08-26T05:03:30.501Z,26.60
2022-08-26T05:05:58.739Z,27.16
2022-08-26T05:08:26.175Z,27.46
2022-08-26T05:10:56.379Z,27.84
2022-08-26T05:13:26.371Z,27.95
2022-08-26T05:15:54.463Z,28.25
2022-08-26T05:18:24.356Z,28.59
2022-08-26T05:20:54.874Z,28.84
2022-08-26T05:23:23.976Z,29.25
2022-08-26T05:25:57.036Z,29.41
2022-08-26T05:28:27.144Z,29.64
2022-08-26T05:30:54.583Z,30.00
2022-08-26T05:33:22.172Z,30.66
2022-08-26T05:35:49.612Z,30.94
2022-08-26T05:38:18.810Z,31.24
2022-08-26T05:40:49.313Z,31.58
2022-08-26T05:43:20.741Z,32.02
2022-08-26T05:45:50.254Z,32.20
2022-08-26T05:48:22.795Z,32.30
2022-08-26T05:50:53.070Z,32.63
2022-08-26T05:53:21.827Z,32.89
2022-08-26T05:55:52.468Z,33.27
2022-08-26T05:58:21.916Z,33.31
2022-08-26T06:01:01.448Z,33.69
2022-08-26T06:03:31.784Z,34.08
2022-08-26T06:05:58.858Z,33.79
2022-08-26T06:08:25.643Z,34.05
2022-08-26T06:11:00.083Z,34.20
2022-08-26T06:13:30.219Z,34.43
2022-08-26T06:15:59.553Z,34.30
2022-08-26T06:18:32.912Z,34.13
2022-08-26T06:21:18.536Z,34.45
2022-08-26T06:24:05.743Z,34.45
2022-08-26T06:26:34.196Z,34.43
2022-08-26T06:29:05.391Z,34.26
2022-08-26T06:31:33.657Z,34.38
2022-08-26T06:34:01.299Z,34.52
2022-08-26T06:36:30.718Z,35.00
2022-08-26T06:39:01.673Z,35.00
2022-08-26T06:41:28.775Z,35.07
2022-08-26T06:43:56.851Z,35.44
2022-08-26T06:46:24.151Z,35.31
2022-08-26T06:48:54.323Z,35.13
2022-08-26T06:51:24.131Z,35.46
2022-08-26T06:53:53.414Z,35.55
2022-08-26T06:56:23.568Z,35.33
2022-08-26T06:58:51.918Z,35.16
2022-08-26T07:01:30.488Z,35.17
2022-08-26T07:04:00.795Z,35.47
2022-08-26T07:06:28.575Z,35.47
2022-08-26T07:09:04.963Z,35.74
2022-08-26T07:11:33.939Z,35.61
2022-08-26T07:14:01.223Z,35.53
2022-08-26T07:16:31.111Z,35.21
2022-08-26T07:18:58.193Z,34.92
2022-08-26T07:21:26.172Z,34.91
2022-08-26T07:23:58.690Z,35.34
2022-08-26T07:26:30.226Z,35.72
2022-08-26T07:28:58.581Z,35.88
2022-08-26T07:31:28.478Z,36.14
2022-08-26T07:33:56.928Z,36.28
2022-08-26T07:36:24.805Z,36.28
2022-08-26T07:38:53.039Z,35.01
2022-08-26T07:41:24.469Z,35.75
2022-08-26T07:43:52.975Z,36.01
2022-08-26T07:46:27.218Z,36.17
2022-08-26T07:48:57.618Z,36.77
2022-08-26T07:51:25.078Z,37.04
2022-08-26T07:53:53.078Z,37.54
2022-08-26T07:56:22.174Z,37.65
2022-08-26T07:58:51.483Z,38.18
2022-08-26T08:01:24.258Z,37.86
2022-08-26T08:03:54.201Z,37.73
2022-08-26T08:06:27.046Z,36.75
2022-08-26T08:08:54.871Z,37.63
2022-08-26T08:11:22.535Z,37.46
2022-08-26T08:13:52.365Z,37.07
2022-08-26T08:16:25.079Z,37.54
2022-08-26T08:18:53.728Z,37.93
2022-08-26T08:21:24.131Z,38.22
2022-08-26T08:23:52.870Z,37.88
2022-08-26T08:26:20.620Z,38.48
2022-08-26T08:28:48.158Z,38.63
2022-08-26T08:31:52.513Z,39.08
2022-08-26T08:34:11.038Z,39.26
2022-08-26T08:36:37.901Z,39.26
2022-08-26T08:39:05.447Z,39.42
2022-08-26T08:42:04.504Z,39.77
2022-08-26T08:44:32.248Z,40.00
2022-08-26T08:47:06.301Z,40.03
2022-08-26T08:49:34.623Z,39.85
2022-08-26T08:52:23.224Z,40.34
2022-08-26T08:54:55.573Z,39.62
2022-08-26T08:57:46.929Z,39.92
2022-08-26T09:00:18.981Z,39.84
2022-08-26T09:02:58.393Z,38.59
2022-08-26T09:05:34.040Z,38.52
2022-08-26T09:08:20.132Z,38.80
2022-08-26T09:10:54.845Z,38.79
2022-08-26T09:13:26.034Z,39.16
2022-08-26T09:16:10.673Z,38.00
2022-08-26T09:18:52.455Z,38.96
2022-08-26T09:21:23.545Z,39.38
2022-08-26T09:23:56.634Z,39.06
2022-08-26T09:26:47.385Z,39.41
2022-08-26T09:29:27.087Z,38.98
2022-08-26T09:32:26.628Z,39.29
2022-08-26T09:34:54.114Z,38.62
2022-08-26T09:40:17.942Z,39.47
2022-08-26T09:42:45.414Z,38.53
2022-08-26T09:45:15.704Z,38.45
2022-08-26T09:47:47.930Z,37.94
2022-08-26T09:50:32.351Z,38.36
2022-08-26T09:53:28.469Z,38.23
2022-08-26T09:56:32.849Z,38.82
2022-08-26T09:59:01.214Z,39.56
2022-08-26T10:01:33.942Z,38.88
2022-08-26T10:04:14.270Z,38.64
2022-08-26T10:06:54.655Z,39.05
2022-08-26T10:09:25.861Z,39.40
2022-08-26T10:12:00.796Z,39.38
2022-08-26T10:14:50.502Z,39.28
2022-08-26T10:17:25.366Z,38.71
2022-08-26T10:19:57.915Z,38.87
2022-08-26T10:22:41.394Z,39.18
2022-08-26T10:25:16.188Z,39.31
2022-08-26T10:28:19.773Z,39.90
2022-08-26T10:30:53.132Z,40.23
2022-08-26T10:33:19.964Z,40.64
2022-08-26T10:36:02.001Z,41.01
2022-08-26T10:38:40.616Z,40.70
2022-08-26T10:41:16.841Z,40.95
2022-08-26T10:43:55.637Z,40.52
2022-08-26T10:46:27.390Z,40.41
2022-08-26T10:49:06.732Z,41.10
2022-08-26T10:51:42.389Z,42.14
2022-08-26T10:54:17.321Z,41.66
2022-08-26T10:57:02.839Z,42.35
2022-08-26T10:59:57.448Z,42.61
2022-08-26T11:02:37.125Z,43.06
2022-08-26T11:05:19.839Z,41.43
2022-08-26T11:07:52.832Z,40.43
2022-08-26T11:10:21.862Z,39.96
2022-08-26T11:12:58.032Z,40.04
2022-08-26T11:15:25.121Z,38.77
2022-08-26T11:17:52.113Z,39.07
2022-08-26T11:20:41.892Z,39.61
2022-08-26T11:23:21.253Z,39.84
2022-08-26T11:25:57.481Z,39.59
2022-08-26T11:28:37.711Z,38.97
2022-08-26T11:31:10.315Z,38.96
2022-08-26T11:33:59.410Z,39.28
2022-08-26T11:36:41.321Z,39.18
2022-08-26T11:39:30.041Z,39.27
2022-08-26T11:42:02.920Z,39.35
2022-08-26T11:44:40.525Z,38.93
2022-08-26T11:47:11.569Z,39.01
2022-08-26T11:49:39.246Z,39.39
2022-08-26T11:52:21.095Z,39.99
2022-08-26T11:55:11.201Z,40.26
2022-08-26T11:57:46.542Z,40.45
2022-08-26T12:00:26.617Z,39.66
2022-08-26T12:02:55.853Z,39.69
2022-08-26T12:05:38.538Z,39.58
2022-08-26T12:08:11.366Z,39.56
2022-08-26T12:10:38.537Z,39.34
2022-08-26T12:13:07.314Z,38.81
2022-08-26T12:15:35.866Z,38.84
2022-08-26T12:18:28.627Z,39.05
2022-08-26T12:21:00.701Z,39.44
2022-08-26T12:23:36.543Z,38.90
2022-08-26T12:26:11.263Z,38.20
2022-08-26T12:28:54.287Z,38.80
2022-08-26T12:31:46.805Z,37.12
2022-08-26T12:34:18.119Z,38.42
2022-08-26T12:36:48.954Z,39.05
2022-08-26T12:39:26.208Z,38.72
2022-08-26T12:41:56.661Z,39.91
2022-08-26T12:44:53.785Z,38.75
2022-08-26T12:47:36.933Z,39.24
2022-08-26T12:50:32.921Z,38.97
2022-08-26T12:53:03.677Z,39.53
2022-08-26T12:55:33.722Z,40.00
2022-08-26T12:58:13.019Z,40.17
2022-08-26T13:00:43.040Z,40.73
2022-08-26T13:03:33.925Z,40.89
2022-08-26T13:06:31.440Z,41.08
2022-08-26T13:09:05.316Z,41.33
2022-08-26T13:11:41.474Z,41.30
2022-08-26T13:14:23.876Z,41.80
2022-08-26T13:16:52.998Z,42.10
2022-08-26T13:19:22.309Z,42.43
2022-08-26T13:21:59.610Z,42.47
2022-08-26T13:24:33.088Z,41.39
2022-08-26T13:27:00.345Z,41.45
2022-08-26T13:29:27.551Z,41.15
2022-08-26T13:31:55.893Z,41.28
2022-08-26T13:34:24.825Z,41.38
2022-08-26T13:36:54.982Z,41.69
2022-08-26T13:39:23.110Z,41.64
2022-08-26T13:41:50.285Z,42.10
2022-08-26T13:44:19.623Z,42.13
2022-08-26T13:46:46.627Z,42.02
2022-08-26T13:49:13.775Z,42.34
2022-08-26T13:51:41.854Z,42.38
2022-08-26T13:54:08.928Z,42.54
2022-08-26T13:56:36.416Z,42.66
2022-08-26T13:59:03.536Z,41.64
2022-08-26T14:01:32.788Z,41.29
2022-08-26T14:03:59.990Z,41.40
2022-08-26T14:06:27.269Z,41.31
2022-08-26T14:08:54.105Z,40.79
2022-08-26T14:11:21.583Z,40.45
2022-08-26T14:13:48.536Z,39.97
2022-08-26T14:16:37.693Z,39.97
2022-08-26T14:19:24.566Z,39.82
2022-08-26T14:21:51.572Z,39.79
2022-08-26T14:24:18.355Z,40.00
2022-08-26T14:26:45.197Z,40.25
2022-08-26T14:29:14.705Z,40.45
2022-08-26T14:31:43.946Z,40.81
2022-08-26T14:34:13.991Z,41.06
2022-08-26T14:36:41.122Z,41.08
2022-08-26T14:39:11.083Z,41.20
2022-08-26T14:41:53.813Z,41.26
2022-08-26T14:44:25.037Z,41.07
2022-08-26T14:46:53.328Z,40.99
2022-08-26T14:49:22.206Z,41.11
2022-08-26T14:51:49.601Z,40.99
2022-08-26T14:54:18.725Z,41.05
2022-08-26T14:56:52.662Z,41.18
2022-08-26T14:59:26.330Z,41.14
2022-08-26T15:01:54.954Z,40.56
2022-08-26T15:04:21.739Z,40.64
2022-08-26T15:06:48.877Z,40.67
2022-08-26T15:09:16.487Z,40.39
2022-08-26T15:11:43.483Z,40.41
2022-08-26T15:14:14.819Z,40.49
2022-08-26T15:16:48.606Z,40.33
2022-08-26T15:19:16.252Z,40.18
2022-08-26T15:21:45.500Z,40.07
2022-08-26T15:24:12.968Z,40.04
2022-08-26T15:26:40.093Z,40.06
2022-08-26T15:29:07.309Z,39.84
2022-08-26T15:31:34.521Z,39.88
2022-08-26T15:34:06.601Z,39.76
2022-08-26T15:36:33.933Z,39.56
2022-08-26T15:39:01.683Z,39.32
2022-08-26T15:41:29.746Z,39.20
2022-08-26T15:43:57.856Z,39.49
2022-08-26T15:46:24.881Z,38.13
2022-08-26T15:48:52.183Z,38.16
2022-08-26T15:51:31.846Z,38.19
2022-08-26T15:53:59.129Z,38.09
2022-08-26T15:56:27.941Z,38.10
2022-08-26T15:58:56.200Z,37.38
2022-08-26T16:01:27.599Z,37.23
2022-08-26T16:03:55.791Z,37.37
2022-08-26T16:06:28.957Z,37.45
2022-08-26T16:08:56.408Z,36.96
2022-08-26T16:11:24.487Z,37.01
2022-08-26T16:13:51.833Z,36.86
2022-08-26T16:16:19.674Z,36.83
2022-08-26T16:18:48.568Z,36.55
2022-08-26T16:21:18.413Z,36.55
2022-08-26T16:23:46.322Z,36.32
2022-08-26T16:26:16.499Z,35.87
2022-08-26T16:28:44.134Z,36.15
2022-08-26T16:31:11.589Z,36.31
2022-08-26T16:33:39.092Z,36.24
2022-08-26T16:36:07.534Z,35.83
2022-08-26T16:38:35.705Z,35.82
2022-08-26T16:41:02.774Z,35.73
2022-08-26T16:43:30.043Z,35.74
2022-08-26T16:45:57.299Z,35.63
2022-08-26T16:48:24.600Z,35.61
2022-08-26T16:50:52.152Z,35.49
2022-08-26T16:53:19.270Z,35.45
2022-08-26T16:55:47.832Z,35.26
2022-08-26T16:58:15.065Z,35.24
2022-08-26T17:00:42.650Z,35.30
2022-08-26T17:03:10.126Z,35.11
2022-08-26T17:05:39.927Z,35.15
2022-08-26T17:08:07.611Z,35.19
2022-08-26T17:10:35.848Z,35.20
2022-08-26T17:13:03.099Z,35.13
2022-08-26T17:15:29.962Z,34.96
2022-08-26T17:17:57.215Z,35.08
2022-08-26T17:20:25.257Z,34.96
2022-08-26T17:22:55.353Z,34.83
2022-08-26T17:25:26.017Z,34.85
2022-08-26T17:27:53.210Z,34.84
2022-08-26T17:30:21.210Z,34.71
2022-08-26T17:32:48.622Z,34.70
2022-08-26T17:35:17.067Z,34.68
2022-08-26T17:37:44.096Z,34.64
2022-08-26T17:40:15.634Z,34.43
2022-08-26T17:42:43.461Z,34.48
2022-08-26T17:45:12.015Z,34.47
2022-08-26T17:47:39.591Z,34.27
2022-08-26T17:50:09.483Z,34.11
2022-08-26T17:52:38.133Z,34.04
2022-08-26T17:55:06.820Z,34.08
2022-08-26T17:57:37.368Z,33.89
2022-08-26T18:00:14.796Z,33.88
2022-08-26T18:02:41.750Z,33.78
2022-08-26T18:05:10.021Z,33.58
2022-08-26T18:07:43.725Z,33.60
2022-08-26T18:10:13.406Z,33.59
2022-08-26T18:12:41.783Z,33.34
2022-08-26T18:15:10.640Z,33.24
2022-08-26T18:17:39.475Z,33.28
2022-08-26T18:20:09.068Z,33.29
2022-08-26T18:22:36.026Z,33.23
2022-08-26T18:25:05.018Z,32.98
2022-08-26T18:27:32.406Z,32.76
2022-08-26T18:29:59.684Z,32.02
2022-08-26T18:32:26.532Z,31.81
2022-08-26T18:34:53.484Z,31.62
2022-08-26T18:37:20.509Z,31.75
2022-08-26T18:39:47.785Z,31.65
2022-08-26T18:42:14.794Z,31.58
2022-08-26T18:44:41.706Z,31.48
2022-08-26T18:47:08.681Z,31.51
2022-08-26T18:49:35.480Z,31.52
2022-08-26T18:52:02.609Z,31.19
2022-08-26T18:54:30.137Z,31.03
2022-08-26T18:56:56.922Z,30.96
2022-08-26T18:59:29.504Z,30.78
2022-08-26T19:01:57.790Z,30.69
2022-08-26T19:04:25.048Z,30.23
2022-08-26T19:06:52.179Z,29.86
2022-08-26T19:09:20.927Z,30.00
2022-08-26T19:11:49.595Z,30.10
2022-08-26T19:14:17.554Z,30.13
2022-08-26T19:16:47.454Z,30.13
2022-08-26T19:19:15.546Z,30.10
2022-08-26T19:21:43.147Z,30.05
2022-08-26T19:24:15.597Z,30.15
2022-08-26T19:26:47.468Z,30.15
2022-08-26T19:29:15.690Z,29.77
2022-08-26T19:31:44.046Z,29.80
2022-08-26T19:34:12.290Z,29.84
2022-08-26T19:36:40.192Z,29.89
2022-08-26T19:39:12.311Z,29.82
2022-08-26T19:41:40.047Z,29.78
2022-08-26T19:44:10.226Z,29.85
2022-08-26T19:49:06.670Z,29.83
2022-08-26T19:51:35.199Z,29.78
2022-08-26T19:54:02.591Z,29.58
2022-08-26T19:56:29.936Z,29.77
2022-08-26T19:58:57.512Z,29.85
2022-08-26T20:01:24.769Z,29.33
2022-08-26T20:03:51.778Z,29.00
2022-08-26T20:06:20.239Z,29.09
2022-08-26T20:08:48.152Z,28.88
2022-08-26T20:11:19.244Z,29.24
2022-08-26T20:13:48.095Z,28.88
2022-08-26T20:16:16.445Z,28.99
2022-08-26T20:19:03.579Z,28.99
2022-08-26T20:21:35.908Z,28.77
2022-08-26T20:24:10.421Z,28.68
2022-08-26T20:26:39.060Z,28.34
2022-08-26T20:29:07.600Z,28.35
2022-08-26T20:31:35.542Z,28.45
2022-08-26T20:34:02.934Z,28.42
2022-08-26T20:36:30.525Z,28.32
2022-08-26T20:38:58.317Z,28.50
2022-08-26T20:41:26.727Z,28.56
2022-08-26T20:43:54.225Z,27.78
2022-08-26T20:46:24.699Z,27.57
2022-08-26T20:48:53.429Z,27.70
2022-08-26T20:51:21.719Z,27.54
2022-08-26T20:53:48.601Z,27.46
2022-08-26T20:56:17.294Z,27.38
2022-08-26T20:58:44.067Z,27.52
2022-08-26T21:01:18.733Z,27.55
2022-08-26T21:03:46.087Z,27.52
2022-08-26T21:06:13.105Z,27.63
2022-08-26T21:08:42.649Z,27.35
2022-08-26T21:11:10.686Z,27.62
2022-08-26T21:13:54.446Z,27.69
2022-08-26T21:16:26.106Z,27.63
2022-08-26T21:18:53.565Z,27.46
2022-08-26T21:21:25.012Z,27.45
2022-08-26T21:23:52.139Z,27.47
2022-08-26T21:26:19.171Z,27.39
2022-08-26T21:28:46.517Z,27.42
2022-08-26T21:31:16.587Z,27.55
2022-08-26T21:33:43.988Z,27.38
2022-08-26T21:36:12.114Z,27.47
2022-08-26T21:38:40.098Z,27.40
2022-08-26T21:41:08.467Z,27.42
2022-08-26T21:43:36.774Z,27.48
2022-08-26T21:46:14.635Z,27.32
2022-08-26T21:48:50.687Z,27.31
2022-08-26T21:51:20.538Z,26.90
2022-08-26T21:53:47.618Z,26.71
2022-08-26T21:56:17.167Z,26.73
2022-08-26T21:58:43.950Z,26.70
2022-08-26T22:01:17.989Z,26.47
2022-08-26T22:03:47.230Z,26.54
2022-08-26T22:06:17.554Z,26.46
2022-08-26T22:08:44.394Z,26.38
2022-08-26T22:11:11.692Z,26.44
2022-08-26T22:13:40.569Z,26.22
2022-08-26T22:16:07.807Z,26.27
2022-08-26T22:18:35.224Z,26.45
2022-08-26T22:21:05.923Z,26.31
2022-08-26T22:23:33.379Z,26.17
2022-08-26T22:26:00.362Z,26.18
2022-08-26T22:28:28.326Z,26.08
2022-08-26T22:30:55.787Z,26.13
2022-08-26T22:33:23.135Z,25.95
2022-08-26T22:35:52.061Z,26.04
2022-08-26T22:38:20.063Z,26.22
2022-08-26T22:40:56.819Z,26.18
2022-08-26T22:43:25.637Z,26.17
2022-08-26T22:45:53.193Z,26.10
2022-08-26T22:48:24.171Z,26.05
2022-08-26T22:50:55.239Z,25.97
2022-08-26T22:53:24.012Z,26.05
2022-08-26T22:55:50.773Z,25.93
2022-08-26T22:58:18.909Z,25.99
2022-08-26T23:00:46.905Z,25.94
2022-08-26T23:03:14.564Z,25.88
2022-08-26T23:05:42.235Z,25.71
2022-08-26T23:08:10.135Z,25.76
2022-08-26T23:10:37.399Z,25.74
2022-08-26T23:13:07.737Z,25.72
2022-08-26T23:15:35.541Z,25.89
2022-08-26T23:18:02.548Z,25.83
2022-08-26T23:20:29.448Z,25.53
2022-08-26T23:22:56.624Z,25.68
2022-08-26T23:25:24.428Z,25.30
2022-08-26T23:27:52.087Z,24.91
2022-08-26T23:30:23.664Z,24.98
2022-08-26T23:32:50.786Z,24.59
2022-08-26T23:35:21.774Z,24.54
2022-08-26T23:37:53.143Z,24.33
2022-08-26T23:40:26.749Z,24.45
2022-08-26T23:42:55.834Z,24.53
2022-08-26T23:45:24.825Z,24.65
2022-08-26T23:47:52.108Z,24.61
2022-08-26T23:50:21.158Z,24.69
2022-08-26T23:53:06.492Z,24.72
2022-08-26T23:55:38.724Z,24.66
2022-08-26T23:58:06.157Z,24.65
